sensor_id;sensor_type;location;lat;lon;timestamp;P1;durP1;ratioP1;P2;durP2;ratioP2
46036;SDS011;31769;49.304;8.428;2023-04-08T00:02:40;22.65;;;17.48;;
46036;SDS011;31769;49.304;8.428;2023-04-08T00:05:40;19.65;;;16.40;;
46036;SDS011;31769;49.304;8.428;2023-04-08T00:08:41;20.40;;;17.75;;
46036;SDS011;31769;49.304;8.428;2023-04-08T00:11:42;19.80;;;17.42;;
46036;SDS011;31769;49.304;8.428;2023-04-08T00:14:42;18.70;;;16.17;;
46036;SDS011;31769;49.304;8.428;2023-04-08T00:17:43;19.80;;;17.02;;
46036;SDS011;31769;49.304;8.428;2023-04-08T00:20:44;19.88;;;16.48;;
46036;SDS011;31769;49.304;8.428;2023-04-08T00:23:45;23.35;;;18.80;;
46036;SDS011;31769;49.304;8.428;2023-04-08T00:26:46;29.15;;;22.75;;
46036;SDS011;31769;49.304;8.428;2023-04-08T00:29:47;22.17;;;17.38;;
46036;SDS011;31769;49.304;8.428;2023-04-08T00:32:47;19.52;;;17.20;;
46036;SDS011;31769;49.304;8.428;2023-04-08T00:35:48;21.52;;;17.90;;
46036;SDS011;31769;49.304;8.428;2023-04-08T00:38:48;21.00;;;17.17;;
46036;SDS011;31769;49.304;8.428;2023-04-08T00:41:49;22.58;;;19.08;;
46036;SDS011;31769;49.304;8.428;2023-04-08T00:44:50;22.80;;;18.90;;
46036;SDS011;31769;49.304;8.428;2023-04-08T00:47:50;20.73;;;18.27;;
46036;SDS011;31769;49.304;8.428;2023-04-08T00:50:51;23.83;;;19.60;;
46036;SDS011;31769;49.304;8.428;2023-04-08T00:53:52;24.25;;;18.73;;
46036;SDS011;31769;49.304;8.428;2023-04-08T00:56:54;20.38;;;18.02;;
46036;SDS011;31769;49.304;8.428;2023-04-08T00:59:55;21.25;;;18.55;;
46036;SDS011;31769;49.304;8.428;2023-04-08T01:09:37;20.95;;;18.33;;
46036;SDS011;31769;49.304;8.428;2023-04-08T01:12:39;21.05;;;18.65;;
46036;SDS011;31769;49.304;8.428;2023-04-08T01:15:44;23.50;;;19.40;;
46036;SDS011;31769;49.304;8.428;2023-04-08T01:18:45;21.33;;;18.52;;
46036;SDS011;31769;49.304;8.428;2023-04-08T01:21:48;22.05;;;19.60;;
46036;SDS011;31769;49.304;8.428;2023-04-08T01:24:49;23.10;;;20.15;;
46036;SDS011;31769;49.304;8.428;2023-04-08T01:27:59;23.95;;;19.67;;
46036;SDS011;31769;49.304;8.428;2023-04-08T01:31:02;23.50;;;19.70;;
46036;SDS011;31769;49.304;8.428;2023-04-08T01:34:03;21.70;;;18.33;;
46036;SDS011;31769;49.304;8.428;2023-04-08T01:37:05;22.30;;;18.67;;
46036;SDS011;31769;49.304;8.428;2023-04-08T01:40:07;22.65;;;20.00;;
46036;SDS011;31769;49.304;8.428;2023-04-08T01:43:11;22.77;;;19.17;;
46036;SDS011;31769;49.304;8.428;2023-04-08T01:46:14;22.48;;;18.88;;
46036;SDS011;31769;49.304;8.428;2023-04-08T01:49:16;21.95;;;19.20;;
46036;SDS011;31769;49.304;8.428;2023-04-08T01:52:17;22.75;;;20.02;;
46036;SDS011;31769;49.304;8.428;2023-04-08T01:55:19;24.95;;;20.90;;
46036;SDS011;31769;49.304;8.428;2023-04-08T01:58:20;25.02;;;20.65;;
46036;SDS011;31769;49.304;8.428;2023-04-08T02:01:21;26.25;;;17.48;;
46036;SDS011;31769;49.304;8.428;2023-04-08T02:04:26;26.70;;;18.08;;
46036;SDS011;31769;49.304;8.428;2023-04-08T02:07:26;26.70;;;18.70;;
46036;SDS011;31769;49.304;8.428;2023-04-08T02:10:28;27.13;;;18.75;;
46036;SDS011;31769;49.304;8.428;2023-04-08T02:13:29;28.20;;;18.45;;
46036;SDS011;31769;49.304;8.428;2023-04-08T02:23:00;26.73;;;19.50;;
46036;SDS011;31769;49.304;8.428;2023-04-08T02:26:23;28.38;;;19.17;;
46036;SDS011;31769;49.304;8.428;2023-04-08T02:29:24;27.42;;;20.23;;
46036;SDS011;31769;49.304;8.428;2023-04-08T02:32:27;30.80;;;21.55;;
46036;SDS011;31769;49.304;8.428;2023-04-08T02:35:30;29.45;;;21.23;;
46036;SDS011;31769;49.304;8.428;2023-04-08T02:38:31;28.98;;;20.67;;
46036;SDS011;31769;49.304;8.428;2023-04-08T02:41:32;28.52;;;19.92;;
46036;SDS011;31769;49.304;8.428;2023-04-08T02:44:33;30.67;;;21.83;;
46036;SDS011;31769;49.304;8.428;2023-04-08T02:47:36;30.17;;;21.52;;
46036;SDS011;31769;49.304;8.428;2023-04-08T02:50:37;33.58;;;22.88;;
46036;SDS011;31769;49.304;8.428;2023-04-08T02:53:38;33.60;;;22.77;;
46036;SDS011;31769;49.304;8.428;2023-04-08T02:56:39;30.50;;;22.42;;
46036;SDS011;31769;49.304;8.428;2023-04-08T02:59:40;30.75;;;22.35;;
46036;SDS011;31769;49.304;8.428;2023-04-08T03:02:41;31.92;;;23.00;;
46036;SDS011;31769;49.304;8.428;2023-04-08T03:05:41;31.85;;;23.02;;
46036;SDS011;31769;49.304;8.428;2023-04-08T03:08:42;33.35;;;23.60;;
46036;SDS011;31769;49.304;8.428;2023-04-08T03:11:43;32.05;;;23.83;;
46036;SDS011;31769;49.304;8.428;2023-04-08T03:14:44;34.10;;;24.65;;
46036;SDS011;31769;49.304;8.428;2023-04-08T03:17:44;30.38;;;22.98;;
46036;SDS011;31769;49.304;8.428;2023-04-08T03:20:45;32.40;;;23.70;;
46036;SDS011;31769;49.304;8.428;2023-04-08T03:23:46;36.47;;;24.80;;
46036;SDS011;31769;49.304;8.428;2023-04-08T03:26:46;36.20;;;25.00;;
46036;SDS011;31769;49.304;8.428;2023-04-08T03:29:47;32.47;;;24.05;;
46036;SDS011;31769;49.304;8.428;2023-04-08T03:32:48;37.75;;;26.40;;
46036;SDS011;31769;49.304;8.428;2023-04-08T03:35:48;38.45;;;26.77;;
46036;SDS011;31769;49.304;8.428;2023-04-08T03:38:49;37.10;;;25.05;;
46036;SDS011;31769;49.304;8.428;2023-04-08T03:41:50;38.20;;;26.00;;
46036;SDS011;31769;49.304;8.428;2023-04-08T03:44:51;34.67;;;26.48;;
46036;SDS011;31769;49.304;8.428;2023-04-08T03:47:51;36.33;;;25.05;;
46036;SDS011;31769;49.304;8.428;2023-04-08T03:50:52;36.10;;;25.92;;
46036;SDS011;31769;49.304;8.428;2023-04-08T03:53:52;38.30;;;26.48;;
46036;SDS011;31769;49.304;8.428;2023-04-08T03:56:53;37.30;;;27.05;;
46036;SDS011;31769;49.304;8.428;2023-04-08T03:59:54;37.25;;;26.95;;
46036;SDS011;31769;49.304;8.428;2023-04-08T04:02:55;39.13;;;28.13;;
46036;SDS011;31769;49.304;8.428;2023-04-08T04:05:58;39.03;;;26.92;;
46036;SDS011;31769;49.304;8.428;2023-04-08T04:09:02;39.90;;;27.15;;
46036;SDS011;31769;49.304;8.428;2023-04-08T04:12:02;40.13;;;28.17;;
46036;SDS011;31769;49.304;8.428;2023-04-08T04:15:06;42.70;;;27.77;;
46036;SDS011;31769;49.304;8.428;2023-04-08T04:18:07;37.78;;;28.10;;
46036;SDS011;31769;49.304;8.428;2023-04-08T04:21:07;39.75;;;27.00;;
46036;SDS011;31769;49.304;8.428;2023-04-08T04:24:08;40.00;;;27.75;;
46036;SDS011;31769;49.304;8.428;2023-04-08T04:27:09;40.63;;;28.98;;
46036;SDS011;31769;49.304;8.428;2023-04-08T04:30:10;43.55;;;29.17;;
46036;SDS011;31769;49.304;8.428;2023-04-08T04:33:14;41.20;;;29.23;;
46036;SDS011;31769;49.304;8.428;2023-04-08T04:36:15;40.60;;;28.88;;
46036;SDS011;31769;49.304;8.428;2023-04-08T04:39:15;41.63;;;29.35;;
46036;SDS011;31769;49.304;8.428;2023-04-08T04:42:16;44.80;;;28.90;;
46036;SDS011;31769;49.304;8.428;2023-04-08T04:45:16;42.42;;;28.55;;
46036;SDS011;31769;49.304;8.428;2023-04-08T04:48:17;41.53;;;28.77;;
46036;SDS011;31769;49.304;8.428;2023-04-08T04:51:18;40.88;;;27.65;;
46036;SDS011;31769;49.304;8.428;2023-04-08T04:54:18;40.72;;;29.52;;
46036;SDS011;31769;49.304;8.428;2023-04-08T04:57:19;41.72;;;28.67;;
46036;SDS011;31769;49.304;8.428;2023-04-08T05:00:20;41.60;;;28.45;;
46036;SDS011;31769;49.304;8.428;2023-04-08T05:03:21;42.30;;;29.20;;
46036;SDS011;31769;49.304;8.428;2023-04-08T05:06:22;42.83;;;29.13;;
46036;SDS011;31769;49.304;8.428;2023-04-08T05:09:23;42.75;;;30.17;;
46036;SDS011;31769;49.304;8.428;2023-04-08T05:12:24;40.42;;;28.48;;
46036;SDS011;31769;49.304;8.428;2023-04-08T05:15:26;38.05;;;27.42;;
46036;SDS011;31769;49.304;8.428;2023-04-08T05:18:26;41.15;;;28.40;;
46036;SDS011;31769;49.304;8.428;2023-04-08T05:21:27;41.97;;;27.90;;
46036;SDS011;31769;49.304;8.428;2023-04-08T05:24:28;39.88;;;27.63;;
46036;SDS011;31769;49.304;8.428;2023-04-08T05:27:28;39.25;;;28.02;;
46036;SDS011;31769;49.304;8.428;2023-04-08T05:30:29;38.08;;;31.80;;
46036;SDS011;31769;49.304;8.428;2023-04-08T05:33:30;38.38;;;31.30;;
46036;SDS011;31769;49.304;8.428;2023-04-08T05:36:31;33.20;;;27.42;;
46036;SDS011;31769;49.304;8.428;2023-04-08T05:39:31;37.35;;;31.13;;
46036;SDS011;31769;49.304;8.428;2023-04-08T05:42:32;36.97;;;29.98;;
46036;SDS011;31769;49.304;8.428;2023-04-08T05:45:32;37.80;;;29.77;;
46036;SDS011;31769;49.304;8.428;2023-04-08T05:48:33;33.85;;;27.63;;
46036;SDS011;31769;49.304;8.428;2023-04-08T05:51:34;35.80;;;29.55;;
46036;SDS011;31769;49.304;8.428;2023-04-08T05:54:35;35.25;;;28.02;;
46036;SDS011;31769;49.304;8.428;2023-04-08T05:57:36;34.53;;;27.42;;
46036;SDS011;31769;49.304;8.428;2023-04-08T06:00:37;33.03;;;26.23;;
46036;SDS011;31769;49.304;8.428;2023-04-08T06:03:37;33.55;;;27.70;;
46036;SDS011;31769;49.304;8.428;2023-04-08T06:06:38;34.30;;;27.83;;
46036;SDS011;31769;49.304;8.428;2023-04-08T06:09:39;32.53;;;26.35;;
46036;SDS011;31769;49.304;8.428;2023-04-08T06:12:40;33.22;;;26.77;;
46036;SDS011;31769;49.304;8.428;2023-04-08T06:22:57;31.60;;;25.75;;
46036;SDS011;31769;49.304;8.428;2023-04-08T06:25:57;31.40;;;24.45;;
46036;SDS011;31769;49.304;8.428;2023-04-08T06:28:58;30.40;;;24.90;;
46036;SDS011;31769;49.304;8.428;2023-04-08T06:31:59;27.58;;;23.10;;
46036;SDS011;31769;49.304;8.428;2023-04-08T06:35:00;28.48;;;22.92;;
46036;SDS011;31769;49.304;8.428;2023-04-08T06:38:00;26.63;;;21.75;;
46036;SDS011;31769;49.304;8.428;2023-04-08T06:41:02;26.88;;;22.05;;
46036;SDS011;31769;49.304;8.428;2023-04-08T06:44:03;22.88;;;18.70;;
46036;SDS011;31769;49.304;8.428;2023-04-08T06:47:04;23.00;;;19.63;;
46036;SDS011;31769;49.304;8.428;2023-04-08T06:50:04;19.70;;;17.63;;
46036;SDS011;31769;49.304;8.428;2023-04-08T06:53:06;19.40;;;17.40;;
46036;SDS011;31769;49.304;8.428;2023-04-08T06:56:06;18.88;;;16.70;;
46036;SDS011;31769;49.304;8.428;2023-04-08T06:59:07;18.50;;;16.00;;
46036;SDS011;31769;49.304;8.428;2023-04-08T07:02:08;17.38;;;15.45;;
46036;SDS011;31769;49.304;8.428;2023-04-08T07:05:08;16.15;;;14.45;;
46036;SDS011;31769;49.304;8.428;2023-04-08T07:08:09;16.73;;;14.40;;
46036;SDS011;31769;49.304;8.428;2023-04-08T07:11:10;17.13;;;14.18;;
46036;SDS011;31769;49.304;8.428;2023-04-08T07:14:11;14.93;;;13.43;;
46036;SDS011;31769;49.304;8.428;2023-04-08T07:17:12;16.23;;;13.98;;
46036;SDS011;31769;49.304;8.428;2023-04-08T07:20:12;16.50;;;14.45;;
46036;SDS011;31769;49.304;8.428;2023-04-08T07:23:13;16.58;;;14.13;;
46036;SDS011;31769;49.304;8.428;2023-04-08T07:26:13;16.63;;;14.73;;
46036;SDS011;31769;49.304;8.428;2023-04-08T07:29:14;20.52;;;14.63;;
46036;SDS011;31769;49.304;8.428;2023-04-08T07:32:15;16.85;;;15.02;;
46036;SDS011;31769;49.304;8.428;2023-04-08T07:35:16;17.17;;;15.13;;
46036;SDS011;31769;49.304;8.428;2023-04-08T07:38:23;17.25;;;14.70;;
46036;SDS011;31769;49.304;8.428;2023-04-08T07:41:23;16.95;;;15.25;;
46036;SDS011;31769;49.304;8.428;2023-04-08T07:44:24;19.10;;;14.63;;
46036;SDS011;31769;49.304;8.428;2023-04-08T07:47:25;15.52;;;14.02;;
46036;SDS011;31769;49.304;8.428;2023-04-08T07:50:26;15.45;;;13.88;;
46036;SDS011;31769;49.304;8.428;2023-04-08T07:53:26;16.67;;;14.90;;
46036;SDS011;31769;49.304;8.428;2023-04-08T07:56:27;16.40;;;14.15;;
46036;SDS011;31769;49.304;8.428;2023-04-08T07:59:28;16.30;;;14.65;;
46036;SDS011;31769;49.304;8.428;2023-04-08T08:02:28;17.08;;;14.30;;
46036;SDS011;31769;49.304;8.428;2023-04-08T08:05:29;17.20;;;15.30;;
46036;SDS011;31769;49.304;8.428;2023-04-08T08:08:30;18.25;;;16.40;;
46036;SDS011;31769;49.304;8.428;2023-04-08T08:11:32;17.83;;;16.05;;
46036;SDS011;31769;49.304;8.428;2023-04-08T08:14:33;15.70;;;14.13;;
46036;SDS011;31769;49.304;8.428;2023-04-08T08:17:33;16.00;;;14.40;;
46036;SDS011;31769;49.304;8.428;2023-04-08T08:20:34;15.98;;;14.38;;
46036;SDS011;31769;49.304;8.428;2023-04-08T08:23:35;16.70;;;15.00;;
46036;SDS011;31769;49.304;8.428;2023-04-08T08:26:36;16.70;;;14.75;;
46036;SDS011;31769;49.304;8.428;2023-04-08T08:29:37;17.55;;;15.55;;
46036;SDS011;31769;49.304;8.428;2023-04-08T08:32:38;16.13;;;14.43;;
46036;SDS011;31769;49.304;8.428;2023-04-08T08:35:38;17.25;;;15.10;;
46036;SDS011;31769;49.304;8.428;2023-04-08T08:38:39;16.02;;;14.57;;
46036;SDS011;31769;49.304;8.428;2023-04-08T08:41:39;16.00;;;14.60;;
46036;SDS011;31769;49.304;8.428;2023-04-08T08:44:41;15.52;;;14.02;;
46036;SDS011;31769;49.304;8.428;2023-04-08T08:47:41;15.98;;;14.23;;
46036;SDS011;31769;49.304;8.428;2023-04-08T08:50:42;19.42;;;14.07;;
46036;SDS011;31769;49.304;8.428;2023-04-08T08:53:43;17.40;;;14.30;;
46036;SDS011;31769;49.304;8.428;2023-04-08T08:56:44;18.05;;;13.75;;
46036;SDS011;31769;49.304;8.428;2023-04-08T08:59:45;18.52;;;16.52;;
46036;SDS011;31769;49.304;8.428;2023-04-08T09:02:49;15.82;;;14.18;;
46036;SDS011;31769;49.304;8.428;2023-04-08T09:05:51;13.90;;;12.60;;
46036;SDS011;31769;49.304;8.428;2023-04-08T09:08:56;15.30;;;13.38;;
46036;SDS011;31769;49.304;8.428;2023-04-08T09:12:03;13.35;;;12.05;;
46036;SDS011;31769;49.304;8.428;2023-04-08T09:18:13;15.00;;;13.60;;
46036;SDS011;31769;49.304;8.428;2023-04-08T09:21:21;14.98;;;13.07;;
46036;SDS011;31769;49.304;8.428;2023-04-08T09:24:27;13.98;;;12.65;;
46036;SDS011;31769;49.304;8.428;2023-04-08T09:27:33;15.27;;;12.82;;
46036;SDS011;31769;49.304;8.428;2023-04-08T09:30:35;17.05;;;13.80;;
46036;SDS011;31769;49.304;8.428;2023-04-08T09:33:35;13.50;;;12.05;;
46036;SDS011;31769;49.304;8.428;2023-04-08T09:36:36;14.07;;;12.50;;
46036;SDS011;31769;49.304;8.428;2023-04-08T09:39:37;13.63;;;12.15;;
46036;SDS011;31769;49.304;8.428;2023-04-08T09:42:43;13.95;;;12.45;;
46036;SDS011;31769;49.304;8.428;2023-04-08T09:45:47;14.20;;;12.65;;
46036;SDS011;31769;49.304;8.428;2023-04-08T09:48:51;14.93;;;12.02;;
46036;SDS011;31769;49.304;8.428;2023-04-08T09:55:21;13.75;;;12.35;;
46036;SDS011;31769;49.304;8.428;2023-04-08T10:02:58;15.40;;;12.68;;
46036;SDS011;31769;49.304;8.428;2023-04-08T10:06:01;14.98;;;12.85;;
46036;SDS011;31769;49.304;8.428;2023-04-08T10:09:02;17.88;;;13.02;;
46036;SDS011;31769;49.304;8.428;2023-04-08T10:12:03;14.52;;;13.02;;
46036;SDS011;31769;49.304;8.428;2023-04-08T10:21:36;13.15;;;11.85;;
46036;SDS011;31769;49.304;8.428;2023-04-08T10:24:38;12.25;;;11.15;;
46036;SDS011;31769;49.304;8.428;2023-04-08T10:27:39;12.45;;;10.95;;
46036;SDS011;31769;49.304;8.428;2023-04-08T10:30:47;14.70;;;12.23;;
46036;SDS011;31769;49.304;8.428;2023-04-08T10:33:51;14.30;;;12.80;;
46036;SDS011;31769;49.304;8.428;2023-04-08T10:36:53;15.98;;;12.57;;
46036;SDS011;31769;49.304;8.428;2023-04-08T10:39:55;14.50;;;12.90;;
46036;SDS011;31769;49.304;8.428;2023-04-08T10:42:56;14.45;;;11.70;;
46036;SDS011;31769;49.304;8.428;2023-04-08T10:45:57;15.43;;;13.10;;
46036;SDS011;31769;49.304;8.428;2023-04-08T10:48:59;13.50;;;12.02;;
46036;SDS011;31769;49.304;8.428;2023-04-08T10:52:05;12.30;;;11.02;;
46036;SDS011;31769;49.304;8.428;2023-04-08T10:55:06;14.02;;;11.55;;
46036;SDS011;31769;49.304;8.428;2023-04-08T10:58:07;12.70;;;11.10;;
46036;SDS011;31769;49.304;8.428;2023-04-08T11:01:09;14.27;;;11.75;;
46036;SDS011;31769;49.304;8.428;2023-04-08T11:04:10;14.88;;;12.88;;
46036;SDS011;31769;49.304;8.428;2023-04-08T11:07:15;13.93;;;12.52;;
46036;SDS011;31769;49.304;8.428;2023-04-08T11:10:19;13.27;;;11.98;;
46036;SDS011;31769;49.304;8.428;2023-04-08T11:13:20;13.68;;;12.27;;
46036;SDS011;31769;49.304;8.428;2023-04-08T11:16:22;15.85;;;12.63;;
46036;SDS011;31769;49.304;8.428;2023-04-08T11:19:23;14.20;;;12.55;;
46036;SDS011;31769;49.304;8.428;2023-04-08T11:22:24;13.65;;;12.35;;
46036;SDS011;31769;49.304;8.428;2023-04-08T11:25:26;15.35;;;13.07;;
46036;SDS011;31769;49.304;8.428;2023-04-08T11:28:28;14.30;;;12.90;;
46036;SDS011;31769;49.304;8.428;2023-04-08T11:31:29;14.27;;;12.13;;
46036;SDS011;31769;49.304;8.428;2023-04-08T11:34:31;13.63;;;12.30;;
46036;SDS011;31769;49.304;8.428;2023-04-08T11:37:38;15.15;;;11.60;;
46036;SDS011;31769;49.304;8.428;2023-04-08T11:40:40;15.55;;;12.43;;
46036;SDS011;31769;49.304;8.428;2023-04-08T11:43:58;16.77;;;13.10;;
46036;SDS011;31769;49.304;8.428;2023-04-08T11:46:59;13.18;;;11.90;;
46036;SDS011;31769;49.304;8.428;2023-04-08T11:50:01;14.55;;;12.93;;
46036;SDS011;31769;49.304;8.428;2023-04-08T11:53:02;13.48;;;11.77;;
46036;SDS011;31769;49.304;8.428;2023-04-08T11:56:18;14.30;;;12.57;;
46036;SDS011;31769;49.304;8.428;2023-04-08T11:59:20;14.25;;;12.00;;
46036;SDS011;31769;49.304;8.428;2023-04-08T12:02:21;12.48;;;11.18;;
46036;SDS011;31769;49.304;8.428;2023-04-08T12:05:21;12.98;;;11.43;;
46036;SDS011;31769;49.304;8.428;2023-04-08T12:08:22;11.95;;;10.00;;
46036;SDS011;31769;49.304;8.428;2023-04-08T12:11:22;12.85;;;10.55;;
46036;SDS011;31769;49.304;8.428;2023-04-08T12:14:23;11.10;;;9.63;;
46036;SDS011;31769;49.304;8.428;2023-04-08T12:17:24;10.25;;;9.15;;
46036;SDS011;31769;49.304;8.428;2023-04-08T12:20:25;10.07;;;9.07;;
46036;SDS011;31769;49.304;8.428;2023-04-08T12:23:25;10.68;;;9.65;;
46036;SDS011;31769;49.304;8.428;2023-04-08T12:26:26;10.82;;;8.93;;
46036;SDS011;31769;49.304;8.428;2023-04-08T12:29:27;8.82;;;7.93;;
46036;SDS011;31769;49.304;8.428;2023-04-08T12:36:51;8.57;;;7.78;;
46036;SDS011;31769;49.304;8.428;2023-04-08T12:39:51;10.70;;;8.00;;
46036;SDS011;31769;49.304;8.428;2023-04-08T12:42:52;10.57;;;9.25;;
46036;SDS011;31769;49.304;8.428;2023-04-08T12:45:52;9.60;;;8.20;;
46036;SDS011;31769;49.304;8.428;2023-04-08T12:48:53;8.43;;;7.63;;
46036;SDS011;31769;49.304;8.428;2023-04-08T12:51:54;8.07;;;7.28;;
46036;SDS011;31769;49.304;8.428;2023-04-08T12:54:54;10.93;;;7.40;;
46036;SDS011;31769;49.304;8.428;2023-04-08T12:57:55;7.75;;;7.05;;
46036;SDS011;31769;49.304;8.428;2023-04-08T13:00:56;7.90;;;7.20;;
46036;SDS011;31769;49.304;8.428;2023-04-08T13:03:56;9.05;;;8.15;;
46036;SDS011;31769;49.304;8.428;2023-04-08T13:06:57;8.27;;;7.43;;
46036;SDS011;31769;49.304;8.428;2023-04-08T13:09:58;8.27;;;7.00;;
46036;SDS011;31769;49.304;8.428;2023-04-08T13:12:59;7.90;;;7.20;;
46036;SDS011;31769;49.304;8.428;2023-04-08T13:16:00;9.32;;;8.20;;
46036;SDS011;31769;49.304;8.428;2023-04-08T13:19:00;7.80;;;7.00;;
46036;SDS011;31769;49.304;8.428;2023-04-08T13:22:01;7.00;;;6.25;;
46036;SDS011;31769;49.304;8.428;2023-04-08T13:25:01;6.35;;;5.75;;
46036;SDS011;31769;49.304;8.428;2023-04-08T13:28:05;7.15;;;6.47;;
46036;SDS011;31769;49.304;8.428;2023-04-08T13:31:06;7.20;;;6.50;;
46036;SDS011;31769;49.304;8.428;2023-04-08T13:34:06;7.30;;;6.63;;
46036;SDS011;31769;49.304;8.428;2023-04-08T13:37:07;6.78;;;6.07;;
46036;SDS011;31769;49.304;8.428;2023-04-08T13:40:08;6.07;;;5.50;;
46036;SDS011;31769;49.304;8.428;2023-04-08T13:43:09;5.97;;;5.45;;
46036;SDS011;31769;49.304;8.428;2023-04-08T13:46:09;7.55;;;5.97;;
46036;SDS011;31769;49.304;8.428;2023-04-08T13:49:10;8.00;;;6.68;;
46036;SDS011;31769;49.304;8.428;2023-04-08T13:52:10;7.53;;;6.40;;
46036;SDS011;31769;49.304;8.428;2023-04-08T13:55:11;7.78;;;7.07;;
46036;SDS011;31769;49.304;8.428;2023-04-08T13:58:12;6.88;;;6.28;;
46036;SDS011;31769;49.304;8.428;2023-04-08T14:01:12;6.07;;;5.57;;
46036;SDS011;31769;49.304;8.428;2023-04-08T14:04:13;6.00;;;5.50;;
46036;SDS011;31769;49.304;8.428;2023-04-08T14:07:13;5.38;;;4.97;;
46036;SDS011;31769;49.304;8.428;2023-04-08T14:10:14;5.00;;;4.60;;
46036;SDS011;31769;49.304;8.428;2023-04-08T14:13:16;4.80;;;4.40;;
46036;SDS011;31769;49.304;8.428;2023-04-08T14:16:17;4.10;;;3.70;;
46036;SDS011;31769;49.304;8.428;2023-04-08T14:19:17;3.70;;;3.45;;
46036;SDS011;31769;49.304;8.428;2023-04-08T14:22:18;5.65;;;5.10;;
46036;SDS011;31769;49.304;8.428;2023-04-08T14:25:19;5.18;;;4.60;;
46036;SDS011;31769;49.304;8.428;2023-04-08T14:28:19;4.82;;;4.43;;
46036;SDS011;31769;49.304;8.428;2023-04-08T14:31:20;5.32;;;4.95;;
46036;SDS011;31769;49.304;8.428;2023-04-08T14:34:21;6.22;;;5.72;;
46036;SDS011;31769;49.304;8.428;2023-04-08T14:37:22;7.82;;;6.03;;
46036;SDS011;31769;49.304;8.428;2023-04-08T14:40:23;5.85;;;5.43;;
46036;SDS011;31769;49.304;8.428;2023-04-08T14:43:24;7.05;;;6.45;;
46036;SDS011;31769;49.304;8.428;2023-04-08T14:46:25;6.70;;;6.13;;
46036;SDS011;31769;49.304;8.428;2023-04-08T14:49:26;7.63;;;7.03;;
46036;SDS011;31769;49.304;8.428;2023-04-08T14:52:27;7.20;;;6.50;;
46036;SDS011;31769;49.304;8.428;2023-04-08T14:55:27;10.25;;;7.40;;
46036;SDS011;31769;49.304;8.428;2023-04-08T14:58:29;9.07;;;7.40;;
46036;SDS011;31769;49.304;8.428;2023-04-08T15:01:30;8.07;;;7.28;;
46036;SDS011;31769;49.304;8.428;2023-04-08T15:04:32;7.38;;;6.72;;
46036;SDS011;31769;49.304;8.428;2023-04-08T15:07:33;7.88;;;7.07;;
46036;SDS011;31769;49.304;8.428;2023-04-08T15:10:34;8.93;;;7.60;;
46036;SDS011;31769;49.304;8.428;2023-04-08T15:17:50;8.18;;;7.35;;
46036;SDS011;31769;49.304;8.428;2023-04-08T15:20:51;8.57;;;7.68;;
46036;SDS011;31769;49.304;8.428;2023-04-08T15:23:52;8.23;;;7.43;;
46036;SDS011;31769;49.304;8.428;2023-04-08T15:26:52;8.88;;;8.07;;
46036;SDS011;31769;49.304;8.428;2023-04-08T15:29:53;9.70;;;8.70;;
46036;SDS011;31769;49.304;8.428;2023-04-08T15:32:53;12.68;;;11.38;;
46036;SDS011;31769;49.304;8.428;2023-04-08T15:35:54;11.63;;;8.80;;
46036;SDS011;31769;49.304;8.428;2023-04-08T15:38:56;9.25;;;8.23;;
46036;SDS011;31769;49.304;8.428;2023-04-08T15:41:57;9.15;;;8.30;;
46036;SDS011;31769;49.304;8.428;2023-04-08T15:44:57;9.90;;;8.90;;
46036;SDS011;31769;49.304;8.428;2023-04-08T15:47:58;9.30;;;8.10;;
46036;SDS011;31769;49.304;8.428;2023-04-08T15:51:04;10.65;;;8.98;;
46036;SDS011;31769;49.304;8.428;2023-04-08T15:54:06;10.43;;;9.18;;
46036;SDS011;31769;49.304;8.428;2023-04-08T15:57:06;9.55;;;8.65;;
46036;SDS011;31769;49.304;8.428;2023-04-08T16:00:10;10.00;;;8.98;;
46036;SDS011;31769;49.304;8.428;2023-04-08T16:06:15;9.93;;;8.45;;
46036;SDS011;31769;49.304;8.428;2023-04-08T16:09:16;10.50;;;8.73;;
46036;SDS011;31769;49.304;8.428;2023-04-08T16:12:21;9.18;;;8.18;;
46036;SDS011;31769;49.304;8.428;2023-04-08T16:15:24;11.00;;;8.25;;
46036;SDS011;31769;49.304;8.428;2023-04-08T16:18:24;11.43;;;8.32;;
46036;SDS011;31769;49.304;8.428;2023-04-08T16:21:25;9.02;;;7.70;;
46036;SDS011;31769;49.304;8.428;2023-04-08T16:24:26;9.25;;;7.55;;
46036;SDS011;31769;49.304;8.428;2023-04-08T16:27:27;9.70;;;7.22;;
46036;SDS011;31769;49.304;8.428;2023-04-08T16:30:27;10.10;;;7.85;;
46036;SDS011;31769;49.304;8.428;2023-04-08T16:33:28;11.68;;;7.68;;
46036;SDS011;31769;49.304;8.428;2023-04-08T16:36:29;10.82;;;7.53;;
46036;SDS011;31769;49.304;8.428;2023-04-08T16:39:30;10.35;;;7.30;;
46036;SDS011;31769;49.304;8.428;2023-04-08T16:42:31;8.82;;;7.10;;
46036;SDS011;31769;49.304;8.428;2023-04-08T16:45:32;7.80;;;6.88;;
46036;SDS011;31769;49.304;8.428;2023-04-08T16:48:32;7.72;;;6.75;;
46036;SDS011;31769;49.304;8.428;2023-04-08T16:51:33;8.93;;;6.55;;
46036;SDS011;31769;49.304;8.428;2023-04-08T16:54:33;7.65;;;6.72;;
46036;SDS011;31769;49.304;8.428;2023-04-08T16:57:34;7.97;;;6.38;;
46036;SDS011;31769;49.304;8.428;2023-04-08T17:00:35;8.00;;;6.10;;
46036;SDS011;31769;49.304;8.428;2023-04-08T17:03:37;9.10;;;5.90;;
46036;SDS011;31769;49.304;8.428;2023-04-08T17:06:39;6.25;;;5.45;;
46036;SDS011;31769;49.304;8.428;2023-04-08T17:09:40;7.93;;;6.32;;
46036;SDS011;31769;49.304;8.428;2023-04-08T17:12:40;8.25;;;6.28;;
46036;SDS011;31769;49.304;8.428;2023-04-08T17:15:41;9.48;;;6.32;;
46036;SDS011;31769;49.304;8.428;2023-04-08T17:18:42;7.45;;;6.53;;
46036;SDS011;31769;49.304;8.428;2023-04-08T17:21:43;7.95;;;6.40;;
46036;SDS011;31769;49.304;8.428;2023-04-08T17:24:45;20.42;;;14.75;;
46036;SDS011;31769;49.304;8.428;2023-04-08T17:27:46;7.38;;;6.43;;
46036;SDS011;31769;49.304;8.428;2023-04-08T17:30:48;8.27;;;7.18;;
46036;SDS011;31769;49.304;8.428;2023-04-08T17:33:49;9.18;;;7.03;;
46036;SDS011;31769;49.304;8.428;2023-04-08T17:36:50;11.70;;;8.82;;
46036;SDS011;31769;49.304;8.428;2023-04-08T17:39:51;7.45;;;6.05;;
46036;SDS011;31769;49.304;8.428;2023-04-08T17:42:52;7.68;;;6.38;;
46036;SDS011;31769;49.304;8.428;2023-04-08T17:45:52;6.32;;;5.72;;
46036;SDS011;31769;49.304;8.428;2023-04-08T17:48:57;7.60;;;6.13;;
46036;SDS011;31769;49.304;8.428;2023-04-08T17:51:58;8.57;;;5.75;;
46036;SDS011;31769;49.304;8.428;2023-04-08T17:54:59;6.68;;;6.07;;
46036;SDS011;31769;49.304;8.428;2023-04-08T17:58:00;9.18;;;7.13;;
46036;SDS011;31769;49.304;8.428;2023-04-08T18:01:01;7.65;;;6.95;;
46036;SDS011;31769;49.304;8.428;2023-04-08T18:04:02;6.80;;;5.57;;
46036;SDS011;31769;49.304;8.428;2023-04-08T18:07:04;5.63;;;4.93;;
46036;SDS011;31769;49.304;8.428;2023-04-08T18:10:05;5.65;;;4.55;;
46036;SDS011;31769;49.304;8.428;2023-04-08T18:13:06;5.22;;;4.45;;
46036;SDS011;31769;49.304;8.428;2023-04-08T18:16:17;4.72;;;4.32;;
46036;SDS011;31769;49.304;8.428;2023-04-08T18:19:19;4.40;;;4.00;;
46036;SDS011;31769;49.304;8.428;2023-04-08T18:22:20;4.20;;;3.90;;
46036;SDS011;31769;49.304;8.428;2023-04-08T18:25:21;4.85;;;4.45;;
46036;SDS011;31769;49.304;8.428;2023-04-08T18:28:22;4.93;;;4.22;;
46036;SDS011;31769;49.304;8.428;2023-04-08T18:31:23;6.63;;;4.80;;
46036;SDS011;31769;49.304;8.428;2023-04-08T18:34:24;5.18;;;4.10;;
46036;SDS011;31769;49.304;8.428;2023-04-08T18:37:25;7.07;;;4.43;;
46036;SDS011;31769;49.304;8.428;2023-04-08T18:40:26;4.80;;;4.30;;
46036;SDS011;31769;49.304;8.428;2023-04-08T18:43:27;5.32;;;4.82;;